Aeroporto :







RITROVATECI SU...

 
LOGIN :

Iscrizione | Disclaimer

   EN    FR    IT 

 









Sommario :    VFR   VFR Marginale   IFR   IFR Intensivo   IFR Molto Intensivo
Visibilità : 
Base nubi : 
>= 8 km
>= 3000ft
5 / 8 km
1000 / 3000 ft
1500m / 5 km
500 / 1000 ft
800 / 1500m
200 / 500 ft
< 800m
< 200 ft
Simboli :   Temporali  Nebbia  Neve Forte  Precipitazioni Forti  Vento > 20 kt






- Altitudine del aeroporto : 59 ft
- Codice IATA : SDQ


MDSD - Las Americas Int.

ULTIMO METAR :
  • 091800Z 18008KT 9999 FEW022 31/22 Q1012

METARs OBSOLETI :
  • 091700Z 16008KT 9999 FEW022 31/22 Q1013
  • 091600Z 15006KT 9999 SCT022 31/22 Q1014

TAF TAF MDSD
Valido dal 09 a 18 ore il 10 a 18 ore UTC


091600Z 0918/1018 15008KT 9999 SCT022
BECMG 1000/1002 05004KT



MetMap, La meteo Aeronautica in un colpo d'occhio ! - Copyright ORBIFLY Dicembre 2007 - Disclaimer

ORBIFLY MET'MAP TEAM :

Programmazione e sviluppo : Alexandra Zaïnal
Concezione : Baudouin d'Aumeries
Aiuto per la programmazione : Marc-Olivier Méhu
Supporto tecnico e logistico : Manuel Goepfert
Aiuto per la traduzione : Arnaldo La Scala

Contatto : metmap@orbifly.com




FONTI E CREDITI :

   NOAA